Time;durP1;ratioP1;P1;durP2;ratioP2;P2;SDS_P1;SDS_P2;PMS_P1;PMS_P2;Temp;Humidity;BMP_temperature;BMP_pressure;BME280_temperature;BME280_humidity;BME280_pressure;Samples;Min_cycle;Max_cycle;Signal;HPM_P1;HPM_P2
2023/08/04 00:00:40;;;;;;;0.30;0.30;;;;;;;;;;5087357;28;20217;-62
2023/08/04 00:03:07;;;;;;;0.40;0.40;;;;;;;;;;5086861;28;20692;-62
2023/08/04 00:05:34;;;;;;;0.38;0.38;;;;;;;;;;5087457;28;20892;-62
2023/08/04 00:08:01;;;;;;;0.43;0.43;;;;;;;;;;5086694;28;20653;-59
2023/08/04 00:10:28;;;;;;;0.35;0.35;;;;;;;;;;5087626;28;20225;-60
2023/08/04 00:12:57;;;;;;;0.40;0.40;;;;;;;;;;5087418;28;20210;-60
2023/08/04 00:15:24;;;;;;;1.08;0.40;;;;;;;;;;5080370;28;20214;-60
2023/08/04 00:17:51;;;;;;;0.30;0.30;;;;;;;;;;5089456;28;20229;-62
2023/08/04 00:20:18;;;;;;;0.30;0.30;;;;;;;;;;5086398;28;20217;-59
2023/08/04 00:22:45;;;;;;;0.40;0.40;;;;;;;;;;5091105;28;20217;-62
2023/08/04 00:25:12;;;;;;;0.47;0.45;;;;;;;;;;5090115;28;20217;-62
2023/08/04 00:27:39;;;;;;;0.30;0.30;;;;;;;;;;5090996;28;20198;-62
2023/08/04 00:30:10;;;;;;;0.65;0.40;;;;;;;;;;5090108;28;20214;-61
2023/08/04 00:32:37;;;;;;;0.68;0.40;;;;;;;;;;5090962;28;20253;-62
2023/08/04 00:35:05;;;;;;;1.27;0.43;;;;;;;;;;5089797;28;20222;-61
2023/08/04 00:37:33;;;;;;;0.30;0.30;;;;;;;;;;5090973;28;20220;-61
2023/08/04 00:40:00;;;;;;;4.50;0.60;;;;;;;;;;5087143;28;20210;-62
2023/08/04 00:42:27;;;;;;;0.32;0.32;;;;;;;;;;5070729;28;20215;-62
2023/08/04 00:44:54;;;;;;;0.20;0.20;;;;;;;;;;5089084;28;20230;-61
2023/08/04 00:47:24;;;;;;;0.73;0.40;;;;;;;;;;5090004;28;20234;-62
2023/08/04 00:49:52;;;;;;;1.48;0.57;;;;;;;;;;5090796;28;20923;-61
2023/08/04 00:52:19;;;;;;;0.35;0.35;;;;;;;;;;5089782;28;20214;-61
2023/08/04 00:54:47;;;;;;;3.00;0.75;;;;;;;;;;5090415;28;20225;-61
2023/08/04 00:57:15;;;;;;;0.40;0.40;;;;;;;;;;5090666;28;20692;-61
2023/08/04 00:59:42;;;;;;;0.35;0.35;;;;;;;;;;5071564;28;20763;-62
2023/08/04 01:02:09;;;;;;;0.40;0.40;;;;;;;;;;5068052;28;20719;-61
2023/08/04 01:04:50;;;;;;;0.30;0.30;;;;;;;;;;5087818;28;20213;-61
2023/08/04 01:07:19;;;;;;;0.47;0.47;;;;;;;;;;5073974;28;20237;-61
2023/08/04 01:09:51;;;;;;;0.30;0.30;;;;;;;;;;5074436;28;20206;-61
2023/08/04 01:12:24;;;;;;;0.47;0.45;;;;;;;;;;5089731;28;20206;-61
2023/08/04 01:14:54;;;;;;;1.48;0.32;;;;;;;;;;5090415;28;20228;-61
2023/08/04 01:17:25;;;;;;;0.30;0.30;;;;;;;;;;5090193;28;20577;-61
2023/08/04 01:19:54;;;;;;;0.35;0.35;;;;;;;;;;5089051;28;20634;-61
2023/08/04 01:22:23;;;;;;;0.30;0.30;;;;;;;;;;5089781;28;20205;-61
2023/08/04 01:24:50;;;;;;;2.70;0.50;;;;;;;;;;5088776;28;20582;-61
2023/08/04 01:27:19;;;;;;;1.10;0.40;;;;;;;;;;5089919;28;20724;-61
2023/08/04 01:29:47;;;;;;;0.85;0.40;;;;;;;;;;5088180;28;20765;-61
2023/08/04 01:32:14;;;;;;;0.50;0.50;;;;;;;;;;5089870;28;20245;-61
2023/08/04 01:34:44;;;;;;;0.95;0.60;;;;;;;;;;5088781;28;20202;-61
2023/08/04 01:37:11;;;;;;;1.48;0.35;;;;;;;;;;5090086;28;20199;-61
2023/08/04 01:39:40;;;;;;;0.40;0.40;;;;;;;;;;5089628;28;20206;-61
2023/08/04 01:42:07;;;;;;;2.63;0.40;;;;;;;;;;5089066;28;20202;-61
2023/08/04 01:44:34;;;;;;;0.30;0.30;;;;;;;;;;5089302;28;20872;-61
2023/08/04 01:47:03;;;;;;;0.65;0.40;;;;;;;;;;5081290;28;20225;-61
2023/08/04 01:49:30;;;;;;;3.30;0.40;;;;;;;;;;5089769;28;20640;-61
2023/08/04 01:51:57;;;;;;;0.30;0.30;;;;;;;;;;5074243;28;20229;-61
2023/08/04 01:54:24;;;;;;;5.93;0.38;;;;;;;;;;5080759;28;20566;-61
2023/08/04 01:56:52;;;;;;;1.70;0.40;;;;;;;;;;5088680;28;20206;-61
2023/08/04 01:59:19;;;;;;;2.38;0.50;;;;;;;;;;5089082;28;20223;-61
2023/08/04 02:01:46;;;;;;;2.65;0.65;;;;;;;;;;5088032;28;20615;-61
2023/08/04 02:04:13;;;;;;;0.65;0.50;;;;;;;;;;5089030;28;20202;-61
2023/08/04 02:06:40;;;;;;;2.20;0.50;;;;;;;;;;5089218;28;20241;-61
2023/08/04 02:09:07;;;;;;;0.50;0.50;;;;;;;;;;5070058;28;20223;-61
2023/08/04 02:11:34;;;;;;;0.50;0.50;;;;;;;;;;5086706;28;20221;-61
2023/08/04 02:14:03;;;;;;;0.68;0.43;;;;;;;;;;5082391;28;20214;-60
2023/08/04 02:16:30;;;;;;;0.50;0.50;;;;;;;;;;5088894;28;20210;-61
2023/08/04 02:19:01;;;;;;;3.83;0.40;;;;;;;;;;5088017;28;20683;-62
2023/08/04 02:21:28;;;;;;;0.50;0.50;;;;;;;;;;5088770;28;20210;-61
2023/08/04 02:23:55;;;;;;;1.45;0.60;;;;;;;;;;5089117;28;20203;-61
2023/08/04 02:26:23;;;;;;;0.65;0.52;;;;;;;;;;5087931;28;20222;-61
2023/08/04 02:28:50;;;;;;;3.42;0.60;;;;;;;;;;5088838;28;20672;-62
2023/08/04 02:31:19;;;;;;;0.50;0.50;;;;;;;;;;5087489;28;20324;-63
2023/08/04 02:33:46;;;;;;;3.60;0.70;;;;;;;;;;5088755;28;20217;-61
2023/08/04 02:36:15;;;;;;;2.83;0.50;;;;;;;;;;5087459;28;20691;-61
2023/08/04 02:38:43;;;;;;;1.75;0.47;;;;;;;;;;5088749;28;20218;-61
2023/08/04 02:41:11;;;;;;;0.40;0.40;;;;;;;;;;5088279;28;20221;-61
2023/08/04 02:43:39;;;;;;;1.27;0.50;;;;;;;;;;5088462;28;20643;-62
2023/08/04 02:46:06;;;;;;;0.50;0.50;;;;;;;;;;5087540;28;20234;-62
2023/08/04 02:48:35;;;;;;;2.20;0.60;;;;;;;;;;5088578;28;20210;-61
2023/08/04 02:51:02;;;;;;;0.45;0.45;;;;;;;;;;5087425;28;20202;-61
2023/08/04 02:53:29;;;;;;;0.57;0.50;;;;;;;;;;5086602;28;20205;-61
2023/08/04 02:55:57;;;;;;;0.50;0.50;;;;;;;;;;5087159;28;20422;-61
2023/08/04 02:58:24;;;;;;;0.60;0.60;;;;;;;;;;5088448;28;20213;-62
2023/08/04 03:00:51;;;;;;;0.50;0.50;;;;;;;;;;5087946;28;20622;-62
2023/08/04 03:03:19;;;;;;;1.02;0.60;;;;;;;;;;5088298;28;20703;-61
2023/08/04 03:05:47;;;;;;;0.60;0.60;;;;;;;;;;5087955;28;20229;-61
2023/08/04 03:08:14;;;;;;;1.67;0.80;;;;;;;;;;5088118;28;20250;-61
2023/08/04 03:10:42;;;;;;;1.40;0.85;;;;;;;;;;5088058;28;20369;-62
2023/08/04 03:13:09;;;;;;;2.05;0.90;;;;;;;;;;5088273;28;20209;-61
2023/08/04 03:15:36;;;;;;;1.95;1.00;;;;;;;;;;5087177;28;20206;-61
2023/08/04 03:18:04;;;;;;;0.88;0.88;;;;;;;;;;5087879;28;20225;-61
2023/08/04 03:20:31;;;;;;;3.33;1.25;;;;;;;;;;5088290;28;20225;-61
2023/08/04 03:22:59;;;;;;;0.82;0.82;;;;;;;;;;5087599;28;20216;-61
2023/08/04 03:25:26;;;;;;;1.00;0.80;;;;;;;;;;5088326;28;20220;-61
2023/08/04 03:27:53;;;;;;;2.83;1.10;;;;;;;;;;5086911;28;20241;-61
2023/08/04 03:30:20;;;;;;;2.65;1.40;;;;;;;;;;5087860;28;20586;-61
2023/08/04 03:32:47;;;;;;;1.83;1.10;;;;;;;;;;5087087;28;20687;-61
2023/08/04 03:35:14;;;;;;;2.35;1.15;;;;;;;;;;5087834;28;20789;-61
2023/08/04 03:37:42;;;;;;;1.20;1.20;;;;;;;;;;5086891;28;20684;-61
2023/08/04 03:40:11;;;;;;;1.55;1.45;;;;;;;;;;5087567;28;20198;-61
2023/08/04 03:42:38;;;;;;;2.40;1.45;;;;;;;;;;5083541;28;20211;-61
2023/08/04 03:45:06;;;;;;;2.13;1.50;;;;;;;;;;5067937;28;20657;-61
2023/08/04 03:47:33;;;;;;;1.73;1.48;;;;;;;;;;5077839;28;20317;-60
2023/08/04 03:50:00;;;;;;;1.90;1.75;;;;;;;;;;5087207;28;20221;-61
2023/08/04 03:52:27;;;;;;;2.35;1.65;;;;;;;;;;5089643;28;20224;-61
2023/08/04 03:54:54;;;;;;;1.63;1.48;;;;;;;;;;5090081;28;20206;-61
2023/08/04 03:57:22;;;;;;;1.20;1.20;;;;;;;;;;5091279;28;20657;-61
2023/08/04 03:59:49;;;;;;;1.35;1.35;;;;;;;;;;5078199;28;20218;-61
2023/08/04 04:02:16;;;;;;;1.45;1.45;;;;;;;;;;5076460;28;20595;-61
2023/08/04 04:04:44;;;;;;;2.35;1.80;;;;;;;;;;5082014;28;20215;-61
2023/08/04 04:07:11;;;;;;;1.75;1.63;;;;;;;;;;5091305;28;20223;-61
2023/08/04 04:09:38;;;;;;;3.97;1.90;;;;;;;;;;5084795;28;20211;-61
2023/08/04 04:12:05;;;;;;;1.55;1.42;;;;;;;;;;5071252;28;20580;-61
2023/08/04 04:14:33;;;;;;;2.40;1.90;;;;;;;;;;5072430;28;20210;-60
2023/08/04 04:17:02;;;;;;;1.95;1.73;;;;;;;;;;5078782;28;20203;-60
2023/08/04 04:19:29;;;;;;;2.67;1.95;;;;;;;;;;5072743;28;20211;-61
2023/08/04 04:21:56;;;;;;;2.60;1.60;;;;;;;;;;5091410;28;20213;-60
2023/08/04 04:24:23;;;;;;;5.00;2.25;;;;;;;;;;5091171;28;20203;-60
2023/08/04 04:26:50;;;;;;;1.92;1.88;;;;;;;;;;5088039;28;20234;-60
2023/08/04 04:29:17;;;;;;;1.75;1.63;;;;;;;;;;5091318;28;20206;-60
2023/08/04 04:31:45;;;;;;;2.33;1.67;;;;;;;;;;5090003;28;20766;-61
2023/08/04 04:34:12;;;;;;;1.40;1.30;;;;;;;;;;5091281;28;20202;-60
2023/08/04 04:36:39;;;;;;;1.90;1.58;;;;;;;;;;5090101;28;20227;-60
2023/08/04 04:39:07;;;;;;;2.38;2.00;;;;;;;;;;5091119;28;20217;-60
2023/08/04 04:41:34;;;;;;;3.00;2.10;;;;;;;;;;5090129;28;20198;-61
2023/08/04 04:44:02;;;;;;;2.47;2.10;;;;;;;;;;5089764;28;20226;-61
2023/08/04 04:46:29;;;;;;;1.95;1.80;;;;;;;;;;5089548;28;20283;-61
2023/08/04 04:48:57;;;;;;;3.45;2.10;;;;;;;;;;5091166;28;20213;-61
2023/08/04 04:51:24;;;;;;;2.65;2.25;;;;;;;;;;5090982;28;20210;-60
2023/08/04 04:53:51;;;;;;;2.45;2.22;;;;;;;;;;5084933;28;20206;-60
2023/08/04 04:56:18;;;;;;;1.83;1.80;;;;;;;;;;5088384;28;20213;-60
2023/08/04 04:58:45;;;;;;;2.40;2.30;;;;;;;;;;5077543;28;20213;-60
2023/08/04 05:01:12;;;;;;;2.20;2.20;;;;;;;;;;5090797;28;20217;-60
2023/08/04 05:03:39;;;;;;;3.80;2.55;;;;;;;;;;5089896;28;20218;-60
2023/08/04 05:06:08;;;;;;;2.47;2.10;;;;;;;;;;5090525;28;20712;-60
2023/08/04 05:08:35;;;;;;;2.38;2.28;;;;;;;;;;5080392;28;20222;-60
2023/08/04 05:11:02;;;;;;;3.58;2.88;;;;;;;;;;5070311;28;20700;-61
2023/08/04 05:13:29;;;;;;;3.05;2.67;;;;;;;;;;5081323;28;20203;-61
2023/08/04 05:15:56;;;;;;;2.50;2.30;;;;;;;;;;5082383;28;20222;-60
2023/08/04 05:18:23;;;;;;;3.22;2.47;;;;;;;;;;5076374;28;20202;-60
2023/08/04 05:20:50;;;;;;;4.40;2.45;;;;;;;;;;5090376;28;20583;-60
2023/08/04 05:23:19;;;;;;;2.42;2.33;;;;;;;;;;5089903;28;20664;-60
2023/08/04 05:25:46;;;;;;;3.28;2.60;;;;;;;;;;5088758;28;20213;-60
2023/08/04 05:28:23;;;;;;;4.05;2.40;;;;;;;;;;5070037;28;20235;-61
2023/08/04 05:30:51;;;;;;;2.65;2.53;;;;;;;;;;5077499;28;20214;-60
2023/08/04 05:33:18;;;;;;;4.00;2.90;;;;;;;;;;5074293;28;20574;-60
2023/08/04 05:35:45;;;;;;;3.05;2.75;;;;;;;;;;5086014;28;20210;-59
2023/08/04 05:38:13;;;;;;;4.13;3.10;;;;;;;;;;5088297;28;20664;-60
2023/08/04 05:40:43;;;;;;;2.90;2.70;;;;;;;;;;5085219;28;20293;-60
2023/08/04 05:43:10;;;;;;;2.92;2.72;;;;;;;;;;5089841;28;20962;-60
2023/08/04 05:45:38;;;;;;;2.85;2.70;;;;;;;;;;5089120;28;20198;-60
2023/08/04 05:48:05;;;;;;;3.22;2.90;;;;;;;;;;5087350;28;20234;-59
2023/08/04 05:50:32;;;;;;;4.05;2.80;;;;;;;;;;5089501;28;20217;-60
2023/08/04 05:52:59;;;;;;;2.88;2.70;;;;;;;;;;5088600;28;20861;-60
2023/08/04 05:55:26;;;;;;;12.05;3.00;;;;;;;;;;5089142;28;20739;-60
2023/08/04 05:57:56;;;;;;;2.80;2.60;;;;;;;;;;5088142;28;20218;-60
2023/08/04 06:00:23;;;;;;;2.72;2.63;;;;;;;;;;5089331;28;20202;-61
2023/08/04 06:02:50;;;;;;;5.15;2.58;;;;;;;;;;5068602;28;20875;-60
2023/08/04 06:05:17;;;;;;;2.63;2.42;;;;;;;;;;5085264;28;20207;-60
2023/08/04 06:07:44;;;;;;;5.28;2.75;;;;;;;;;;5085344;28;20309;-60
2023/08/04 06:10:11;;;;;;;4.65;2.80;;;;;;;;;;5088401;28;20854;-60
2023/08/04 06:12:38;;;;;;;3.75;3.00;;;;;;;;;;5089183;28;20217;-60
2023/08/04 06:15:07;;;;;;;2.80;2.70;;;;;;;;;;5083278;28;20198;-60
2023/08/04 06:17:34;;;;;;;3.15;2.95;;;;;;;;;;5082969;28;20206;-60
2023/08/04 06:20:01;;;;;;;4.20;3.00;;;;;;;;;;5088804;28;20206;-61
2023/08/04 06:22:28;;;;;;;3.30;3.05;;;;;;;;;;5088190;28;20867;-60
2023/08/04 06:24:55;;;;;;;3.17;2.80;;;;;;;;;;5088202;28;20217;-60
2023/08/04 06:27:22;;;;;;;3.05;2.85;;;;;;;;;;5087922;28;20237;-60
2023/08/04 06:29:50;;;;;;;3.58;3.33;;;;;;;;;;5087204;28;20221;-60
2023/08/04 06:32:18;;;;;;;4.63;3.45;;;;;;;;;;5087742;28;20230;-60
2023/08/04 06:34:45;;;;;;;2.80;2.67;;;;;;;;;;5088593;28;20210;-60
2023/08/04 06:37:12;;;;;;;3.65;3.33;;;;;;;;;;5087407;28;20703;-60
2023/08/04 06:39:39;;;;;;;3.83;3.50;;;;;;;;;;5088632;28;20214;-60
2023/08/04 06:42:06;;;;;;;5.07;3.90;;;;;;;;;;5087354;28;20206;-59
2023/08/04 06:44:33;;;;;;;4.75;3.38;;;;;;;;;;5088531;28;20237;-63
2023/08/04 06:47:00;;;;;;;3.70;3.40;;;;;;;;;;5087521;28;20205;-64
2023/08/04 06:49:29;;;;;;;5.40;3.63;;;;;;;;;;5088256;28;20209;-60
2023/08/04 06:51:56;;;;;;;3.80;3.35;;;;;;;;;;5076555;28;20206;-60
2023/08/04 06:54:23;;;;;;;7.05;3.50;;;;;;;;;;5085129;28;20214;-60
2023/08/04 06:56:50;;;;;;;4.60;3.55;;;;;;;;;;5074114;28;20679;-60
2023/08/04 06:59:17;;;;;;;3.40;3.20;;;;;;;;;;5075752;28;20222;-60
2023/08/04 07:01:44;;;;;;;4.03;3.60;;;;;;;;;;5075298;28;20214;-60
2023/08/04 07:04:11;;;;;;;3.75;3.25;;;;;;;;;;5086409;28;20210;-60
2023/08/04 07:06:39;;;;;;;4.13;3.30;;;;;;;;;;5084203;28;20203;-60
2023/08/04 07:09:06;;;;;;;3.15;2.90;;;;;;;;;;5066072;28;20253;-60
2023/08/04 07:11:33;;;;;;;3.25;3.05;;;;;;;;;;5070007;28;20951;-60
2023/08/04 07:14:00;;;;;;;3.63;3.35;;;;;;;;;;5074292;28;20214;-60
2023/08/04 07:16:27;;;;;;;3.55;3.35;;;;;;;;;;5079867;28;20289;-60
2023/08/04 07:18:54;;;;;;;3.30;3.10;;;;;;;;;;5086503;28;20194;-60
2023/08/04 07:21:21;;;;;;;3.67;3.47;;;;;;;;;;5073951;28;20214;-61
2023/08/04 07:23:50;;;;;;;3.78;3.47;;;;;;;;;;5081154;28;20202;-61
2023/08/04 07:26:17;;;;;;;3.20;2.92;;;;;;;;;;5080847;28;20210;-60
2023/08/04 07:28:44;;;;;;;3.72;3.10;;;;;;;;;;5089426;28;20249;-61
2023/08/04 07:31:11;;;;;;;3.63;3.33;;;;;;;;;;5076053;28;20250;-59
2023/08/04 07:33:38;;;;;;;3.40;3.10;;;;;;;;;;5090793;28;20210;-60
2023/08/04 07:36:06;;;;;;;3.42;3.22;;;;;;;;;;5089412;28;20202;-61
2023/08/04 07:38:33;;;;;;;3.25;3.05;;;;;;;;;;5089613;28;20205;-60
2023/08/04 07:41:02;;;;;;;3.67;3.47;;;;;;;;;;5079623;28;20587;-60
2023/08/04 07:43:29;;;;;;;3.17;3.08;;;;;;;;;;5088834;28;20224;-64
2023/08/04 07:45:56;;;;;;;3.28;3.00;;;;;;;;;;5088859;28;20206;-64
2023/08/04 07:48:23;;;;;;;3.58;3.28;;;;;;;;;;5090342;28;20226;-62
2023/08/04 07:50:51;;;;;;;3.78;3.47;;;;;;;;;;5089994;28;20202;-62
2023/08/04 07:53:19;;;;;;;3.75;3.45;;;;;;;;;;5072703;28;20301;-61
2023/08/04 07:55:54;;;;;;;3.92;3.53;;;;;;;;;;5090908;28;20210;-61
2023/08/04 07:58:23;;;;;;;3.70;3.50;;;;;;;;;;5091066;28;20209;-59
2023/08/04 08:00:50;;;;;;;3.53;3.33;;;;;;;;;;5087503;28;20202;-63
2023/08/04 08:03:17;;;;;;;4.78;3.28;;;;;;;;;;5089780;28;20226;-61
2023/08/04 08:05:44;;;;;;;5.05;3.42;;;;;;;;;;5091536;28;20214;-61
2023/08/04 08:08:11;;;;;;;4.40;3.78;;;;;;;;;;5090380;28;20730;-61
2023/08/04 08:10:38;;;;;;;4.75;3.63;;;;;;;;;;5087864;28;20211;-62
2023/08/04 08:13:06;;;;;;;3.97;3.67;;;;;;;;;;5087100;28;20206;-61
2023/08/04 08:15:35;;;;;;;3.85;3.55;;;;;;;;;;5084469;28;20209;-60
2023/08/04 08:18:03;;;;;;;4.85;4.00;;;;;;;;;;5080359;28;20252;-61
2023/08/04 08:20:30;;;;;;;3.75;3.40;;;;;;;;;;5081789;28;20206;-62
2023/08/04 08:22:57;;;;;;;4.50;3.90;;;;;;;;;;5082028;28;20271;-60
2023/08/04 08:25:24;;;;;;;4.50;4.10;;;;;;;;;;5087254;28;20252;-62
2023/08/04 08:27:51;;;;;;;4.25;3.95;;;;;;;;;;5081000;28;20222;-62
2023/08/04 08:30:18;;;;;;;6.60;3.90;;;;;;;;;;5081482;28;20214;-61
2023/08/04 08:32:47;;;;;;;6.78;3.85;;;;;;;;;;5084775;28;20237;-61
2023/08/04 08:35:14;;;;;;;3.85;3.50;;;;;;;;;;5090767;28;20210;-64
2023/08/04 08:37:41;;;;;;;3.65;3.45;;;;;;;;;;5072163;28;20215;-61
2023/08/04 08:40:09;;;;;;;3.75;3.40;;;;;;;;;;5085001;28;20578;-64
2023/08/04 08:42:36;;;;;;;5.00;3.85;;;;;;;;;;5085680;28;20695;-63
2023/08/04 08:45:03;;;;;;;4.55;4.25;;;;;;;;;;5090610;28;20213;-63
2023/08/04 08:47:33;;;;;;;5.15;3.88;;;;;;;;;;5084479;28;20203;-63
2023/08/04 08:50:02;;;;;;;4.03;3.42;;;;;;;;;;5066504;28;20238;-63
2023/08/04 08:52:31;;;;;;;3.92;3.47;;;;;;;;;;5068501;28;20210;-63
2023/08/04 08:54:58;;;;;;;4.03;3.78;;;;;;;;;;5088689;28;20737;-63
2023/08/04 08:57:26;;;;;;;3.88;3.58;;;;;;;;;;5086048;28;20660;-63
2023/08/04 08:59:53;;;;;;;3.50;3.20;;;;;;;;;;5077519;28;20210;-64
2023/08/04 09:02:20;;;;;;;4.18;3.83;;;;;;;;;;5087981;28;20464;-64
2023/08/04 09:04:47;;;;;;;4.30;3.28;;;;;;;;;;5086929;28;20207;-63
2023/08/04 09:07:16;;;;;;;3.60;3.38;;;;;;;;;;5081340;28;20219;-63
2023/08/04 09:09:43;;;;;;;4.25;3.08;;;;;;;;;;5087820;28;20238;-64
2023/08/04 09:12:10;;;;;;;3.22;2.83;;;;;;;;;;5088441;28;20214;-63
2023/08/04 09:14:50;;;;;;;4.80;2.92;;;;;;;;;;5084808;28;20433;-64
2023/08/04 09:17:30;;;;;;;3.67;3.38;;;;;;;;;;5072422;28;20215;-63
2023/08/04 09:19:57;;;;;;;4.13;3.10;;;;;;;;;;5077795;28;20202;-63
2023/08/04 09:22:26;;;;;;;3.83;2.72;;;;;;;;;;5069894;28;20207;-64
2023/08/04 09:24:53;;;;;;;4.35;3.53;;;;;;;;;;5073801;28;20219;-63
2023/08/04 09:27:31;;;;;;;3.50;3.20;;;;;;;;;;5080230;28;20214;-64
2023/08/04 09:29:59;;;;;;;4.25;3.03;;;;;;;;;;5088395;28;20230;-63
2023/08/04 09:32:26;;;;;;;4.05;2.80;;;;;;;;;;5083384;28;20272;-63
2023/08/04 09:35:00;;;;;;;2.90;2.67;;;;;;;;;;5077775;28;20265;-64
2023/08/04 09:37:28;;;;;;;3.30;3.10;;;;;;;;;;5086221;28;20202;-64
2023/08/04 09:39:55;;;;;;;3.85;2.70;;;;;;;;;;5081389;28;20218;-63
2023/08/04 09:42:23;;;;;;;4.63;3.08;;;;;;;;;;5082623;28;20343;-63
2023/08/04 09:44:53;;;;;;;3.92;2.97;;;;;;;;;;5088190;28;20585;-63
2023/08/04 09:47:22;;;;;;;3.53;3.10;;;;;;;;;;5083226;28;20202;-64
2023/08/04 09:49:49;;;;;;;4.13;3.05;;;;;;;;;;5085194;28;20728;-63
2023/08/04 09:52:20;;;;;;;4.60;3.17;;;;;;;;;;5074805;28;20246;-63
2023/08/04 09:54:49;;;;;;;4.18;3.78;;;;;;;;;;5079822;28;20202;-63
2023/08/04 09:57:16;;;;;;;4.40;3.85;;;;;;;;;;5077290;28;20320;-63
2023/08/04 09:59:44;;;;;;;3.95;3.65;;;;;;;;;;5076362;28;20207;-63
2023/08/04 10:02:13;;;;;;;4.97;3.10;;;;;;;;;;5073172;28;20906;-63
2023/08/04 10:04:40;;;;;;;3.42;3.22;;;;;;;;;;5087556;28;20210;-63
2023/08/04 10:07:09;;;;;;;4.97;3.42;;;;;;;;;;5077084;28;20206;-63
2023/08/04 10:09:36;;;;;;;3.83;3.53;;;;;;;;;;5078302;28;20337;-64
2023/08/04 10:12:08;;;;;;;5.38;3.55;;;;;;;;;;5085844;28;20211;-63
2023/08/04 10:14:35;;;;;;;4.03;3.65;;;;;;;;;;5077877;28;20633;-63
2023/08/04 10:17:05;;;;;;;5.05;3.60;;;;;;;;;;5079400;28;20962;-62
2023/08/04 10:19:32;;;;;;;3.88;3.40;;;;;;;;;;5086996;28;20194;-62
2023/08/04 10:22:05;;;;;;;5.35;3.20;;;;;;;;;;5083869;28;20214;-64
2023/08/04 10:24:35;;;;;;;3.88;3.58;;;;;;;;;;5072366;28;20202;-60
2023/08/04 10:27:12;;;;;;;3.53;3.22;;;;;;;;;;5073057;28;20857;-60
2023/08/04 10:29:41;;;;;;;3.85;3.42;;;;;;;;;;5087621;28;20715;-60
2023/08/04 10:32:08;;;;;;;3.38;3.17;;;;;;;;;;5078526;28;20242;-60
2023/08/04 10:34:36;;;;;;;6.05;3.33;;;;;;;;;;5072369;28;20238;-64
2023/08/04 10:37:06;;;;;;;3.22;3.03;;;;;;;;;;5077784;28;20198;-62
2023/08/04 10:39:33;;;;;;;6.28;3.70;;;;;;;;;;5073781;28;20298;-64
2023/08/04 10:42:00;;;;;;;5.55;3.67;;;;;;;;;;5076998;28;20233;-63
2023/08/04 10:44:30;;;;;;;3.60;3.33;;;;;;;;;;5077950;28;20226;-64
2023/08/04 10:47:04;;;;;;;3.95;3.65;;;;;;;;;;5084219;28;20198;-68
2023/08/04 10:49:31;;;;;;;3.88;3.55;;;;;;;;;;5070950;28;20231;-59
2023/08/04 10:51:59;;;;;;;3.50;3.20;;;;;;;;;;5069831;28;20229;-60
2023/08/04 10:54:26;;;;;;;3.55;3.25;;;;;;;;;;5081766;28;20674;-59
2023/08/04 10:56:53;;;;;;;4.45;3.88;;;;;;;;;;5086370;28;20217;-59
2023/08/04 10:59:20;;;;;;;3.80;3.60;;;;;;;;;;5071524;28;20203;-60
2023/08/04 11:01:48;;;;;;;5.35;3.70;;;;;;;;;;5076568;28;20218;-59
2023/08/04 11:04:16;;;;;;;3.38;3.15;;;;;;;;;;5084691;28;20286;-59
2023/08/04 11:06:44;;;;;;;3.33;3.00;;;;;;;;;;5080418;28;20218;-60
2023/08/04 11:09:12;;;;;;;3.60;2.92;;;;;;;;;;5068814;28;20231;-60
2023/08/04 11:11:39;;;;;;;6.03;3.35;;;;;;;;;;5084547;28;20214;-60
2023/08/04 11:14:07;;;;;;;4.63;3.22;;;;;;;;;;5085780;28;20222;-60
2023/08/04 11:16:36;;;;;;;17.48;6.38;;;;;;;;;;5083529;28;20206;-61
2023/08/04 11:19:04;;;;;;;43.05;9.00;;;;;;;;;;5082344;28;20210;-64
2023/08/04 11:21:33;;;;;;;41.20;9.20;;;;;;;;;;5066786;28;20214;-63
2023/08/04 11:24:00;;;;;;;21.20;6.00;;;;;;;;;;5083013;28;20210;-61
2023/08/04 11:26:29;;;;;;;36.67;8.60;;;;;;;;;;5079950;28;20299;-60
2023/08/04 11:28:57;;;;;;;36.67;8.73;;;;;;;;;;5085958;28;20280;-62
2023/08/04 11:31:26;;;;;;;3.40;3.08;;;;;;;;;;5070692;28;20247;-61
2023/08/04 11:33:53;;;;;;;3.45;2.42;;;;;;;;;;5082660;28;20204;-61
2023/08/04 11:36:20;;;;;;;7.82;4.13;;;;;;;;;;5084864;28;20206;-60
2023/08/04 11:38:49;;;;;;;20.67;7.75;;;;;;;;;;5071718;28;20216;-61
2023/08/04 11:41:16;;;;;;;3.75;2.90;;;;;;;;;;5086929;28;20202;-62
2023/08/04 11:43:44;;;;;;;6.80;3.30;;;;;;;;;;5080767;28;20230;-59
2023/08/04 11:46:11;;;;;;;3.22;2.85;;;;;;;;;;5083100;28;20194;-60
2023/08/04 11:48:39;;;;;;;2.78;1.95;;;;;;;;;;5081894;28;20202;-60
2023/08/04 11:51:07;;;;;;;2.40;2.25;;;;;;;;;;5083533;28;20198;-59
2023/08/04 11:53:34;;;;;;;6.07;3.45;;;;;;;;;;5070179;28;20202;-59
2023/08/04 11:56:04;;;;;;;5.00;2.90;;;;;;;;;;5075134;28;20210;-59
2023/08/04 11:58:32;;;;;;;12.73;4.35;;;;;;;;;;5072664;28;20209;-59
2023/08/04 12:00:59;;;;;;;2.00;1.90;;;;;;;;;;5086648;28;20206;-59
2023/08/04 12:03:26;;;;;;;5.85;2.90;;;;;;;;;;5087386;28;20668;-58
2023/08/04 12:05:53;;;;;;;3.15;2.65;;;;;;;;;;5086577;28;20241;-59
2023/08/04 12:08:20;;;;;;;5.55;2.75;;;;;;;;;;5086660;28;20790;-59
2023/08/04 12:11:00;;;;;;;3.22;2.30;;;;;;;;;;5082328;28;20619;-59
2023/08/04 12:13:34;;;;;;;6.63;2.35;;;;;;;;;;5076448;28;20202;-59
2023/08/04 12:16:01;;;;;;;2.08;1.98;;;;;;;;;;5086045;28;20206;-60
2023/08/04 12:18:29;;;;;;;1.75;1.63;;;;;;;;;;5084201;28;20207;-60
2023/08/04 12:20:57;;;;;;;1.83;1.73;;;;;;;;;;5070426;28;20207;-60
2023/08/04 12:23:24;;;;;;;1.77;1.63;;;;;;;;;;5076117;28;20259;-60
2023/08/04 12:25:51;;;;;;;1.77;1.67;;;;;;;;;;5078462;28;20211;-60
2023/08/04 12:28:18;;;;;;;1.88;1.77;;;;;;;;;;5070289;28;20218;-60
2023/08/04 12:30:47;;;;;;;1.75;1.65;;;;;;;;;;5074842;28;20238;-61
2023/08/04 12:33:14;;;;;;;2.03;1.92;;;;;;;;;;5070844;28;20246;-60
2023/08/04 12:35:41;;;;;;;1.60;1.50;;;;;;;;;;5088743;28;20194;-60
2023/08/04 12:38:08;;;;;;;1.90;1.80;;;;;;;;;;5088061;28;20217;-60
2023/08/04 12:40:36;;;;;;;1.85;1.40;;;;;;;;;;5069605;28;20357;-59
2023/08/04 12:43:03;;;;;;;1.75;1.50;;;;;;;;;;5071208;28;20223;-60
2023/08/04 12:45:30;;;;;;;3.05;1.60;;;;;;;;;;5075787;28;20259;-60
2023/08/04 12:47:58;;;;;;;1.65;1.55;;;;;;;;;;5088957;28;20198;-60
2023/08/04 12:50:25;;;;;;;2.00;1.75;;;;;;;;;;5075914;28;20231;-60
2023/08/04 12:52:53;;;;;;;2.03;1.92;;;;;;;;;;5069772;28;20223;-60
2023/08/04 12:55:21;;;;;;;1.75;1.63;;;;;;;;;;5068744;28;20203;-60
2023/08/04 12:57:48;;;;;;;1.65;1.60;;;;;;;;;;5068877;28;20257;-60
2023/08/04 13:00:16;;;;;;;1.73;1.50;;;;;;;;;;5072903;28;20210;-60
2023/08/04 13:02:43;;;;;;;1.95;1.85;;;;;;;;;;5077171;28;20213;-60
2023/08/04 13:05:11;;;;;;;2.20;2.00;;;;;;;;;;5088766;28;20210;-60
2023/08/04 13:07:38;;;;;;;1.70;1.70;;;;;;;;;;5070682;28;20590;-60
2023/08/04 13:10:06;;;;;;;1.98;1.88;;;;;;;;;;5078371;28;20257;-60
2023/08/04 13:12:33;;;;;;;1.92;1.80;;;;;;;;;;5076887;28;20696;-60
2023/08/04 13:15:00;;;;;;;2.10;2.00;;;;;;;;;;5079920;28;20224;-60
2023/08/04 13:17:27;;;;;;;2.08;1.80;;;;;;;;;;5073160;28;20217;-60
2023/08/04 13:19:54;;;;;;;2.97;2.00;;;;;;;;;;5086602;28;20203;-60
2023/08/04 13:22:22;;;;;;;1.83;1.73;;;;;;;;;;5074567;28;20712;-60
2023/08/04 13:24:50;;;;;;;1.88;1.80;;;;;;;;;;5068140;28;20696;-60
2023/08/04 13:27:17;;;;;;;2.13;1.83;;;;;;;;;;5080436;28;20782;-61
2023/08/04 13:29:47;;;;;;;1.83;1.77;;;;;;;;;;5084896;28;20696;-62
2023/08/04 13:32:14;;;;;;;2.03;1.92;;;;;;;;;;5077961;28;20235;-64
2023/08/04 13:34:41;;;;;;;2.40;1.80;;;;;;;;;;5081472;28;20215;-60
2023/08/04 13:37:08;;;;;;;2.33;2.15;;;;;;;;;;5076286;28;20210;-60
2023/08/04 13:39:37;;;;;;;1.73;1.73;;;;;;;;;;5083985;28;20203;-60
2023/08/04 13:42:04;;;;;;;2.42;1.90;;;;;;;;;;5068512;28;20230;-60
2023/08/04 13:44:31;;;;;;;3.03;1.88;;;;;;;;;;5068728;28;20231;-60
2023/08/04 13:46:58;;;;;;;2.22;1.75;;;;;;;;;;5071874;28;20225;-60
2023/08/04 13:49:25;;;;;;;1.75;1.75;;;;;;;;;;5086805;28;20213;-60
2023/08/04 13:51:52;;;;;;;2.20;2.10;;;;;;;;;;5068310;28;20222;-60
2023/08/04 13:54:20;;;;;;;1.95;1.83;;;;;;;;;;5073294;28;20211;-60
2023/08/04 13:56:48;;;;;;;2.08;1.60;;;;;;;;;;5068411;28;20692;-60
2023/08/04 13:59:15;;;;;;;1.48;1.48;;;;;;;;;;5083714;28;20203;-61
2023/08/04 14:01:42;;;;;;;1.50;1.50;;;;;;;;;;5088001;28;20221;-59
2023/08/04 14:04:09;;;;;;;1.70;1.60;;;;;;;;;;5076722;28;20206;-57
2023/08/04 14:06:36;;;;;;;3.30;2.08;;;;;;;;;;5088609;28;20202;-64
2023/08/04 14:09:03;;;;;;;1.85;1.73;;;;;;;;;;5087902;28;20594;-60
2023/08/04 14:11:31;;;;;;;1.63;1.63;;;;;;;;;;5088178;28;20229;-60
2023/08/04 14:13:59;;;;;;;2.00;1.90;;;;;;;;;;5087714;28;20213;-60
2023/08/04 14:16:26;;;;;;;3.58;2.08;;;;;;;;;;5088679;28;20214;-61
2023/08/04 14:18:53;;;;;;;1.48;1.48;;;;;;;;;;5080984;28;20214;-60
2023/08/04 14:21:20;;;;;;;2.20;1.83;;;;;;;;;;5079399;28;20209;-60
2023/08/04 14:23:47;;;;;;;1.92;1.83;;;;;;;;;;5079188;28;20214;-61
2023/08/04 14:26:14;;;;;;;2.05;2.00;;;;;;;;;;5068476;28;20238;-61
2023/08/04 14:28:41;;;;;;;2.40;2.30;;;;;;;;;;5081414;28;20645;-61
2023/08/04 14:31:10;;;;;;;2.65;2.28;;;;;;;;;;5078790;28;20237;-60
2023/08/04 14:33:37;;;;;;;2.10;2.00;;;;;;;;;;5081419;28;20214;-60
2023/08/04 14:36:04;;;;;;;1.50;1.40;;;;;;;;;;5059146;28;20214;-60
2023/08/04 14:38:31;;;;;;;1.67;1.67;;;;;;;;;;5061379;28;20714;-60
2023/08/04 14:40:59;;;;;;;1.98;1.88;;;;;;;;;;5067225;28;20207;-60
2023/08/04 14:43:26;;;;;;;1.15;1.15;;;;;;;;;;5067909;28;20229;-60
2023/08/04 14:45:53;;;;;;;1.75;1.73;;;;;;;;;;5078812;28;20221;-60